Pride — ZDFD7 — position and weather

sailwx.info

Track history (hours):
 
Tides and Currents Weather Stations Pressure Air Temp Water Temp Dewpoint Dewpoint Depression Visibility Wind Speed Wind Dir Waves Ship Positions

Pride

Last reported at 2014-Oct-23 04:33 UTC. Time now 2014-Oct-23 05:26 UTC.
Position N 57°48' E 010°49'.

Length 88 m; draft 3.4 m.

Type: Ship. MMSI: 236166000.

Date/timePositionNaut miles runAvg speedWind from/ knotsBaromVisibWave heightAir tempDewpointWater temp
2014-Oct-23 04:33N 57°48' E 010°49'10 9.5
2014-Oct-23 03:33N 57°39' E 010°45'152 8.7
2014-Oct-22 10:06N 55°11' E 009°46'5 8.5
2014-Oct-22 09:33N 55°07' E 009°43'4 3.1
2014-Oct-22 08:22N 55°06' E 009°37'0 0.0
2014-Oct-22 07:26N 55°06' E 009°37'0 0.0
2014-Oct-22 00:21N 55°06' E 009°37'0 0.0
2014-Oct-21 23:26N 55°06' E 009°37'7 0.2
2014-Oct-20 08:26N 55°03' E 009°26'6 6.6
2014-Oct-20 07:33N 55°04' E 009°36'9 9.2
2014-Oct-20 06:34N 55°06' E 009°51'26 8.7
2014-Oct-20 03:32N 54°44' E 010°14'9 9.6
2014-Oct-20 02:33N 54°34' E 010°18'9 9.1
2014-Oct-20 01:33N 54°26' E 010°14'5 4.8
2014-Oct-20 00:33N 54°22' E 010°08'4 4.2
2014-Oct-19 23:33N 54°22' E 010°01'5 5.4
2014-Oct-19 22:32N 54°22' E 009°52'36 7.2
2014-Oct-19 17:33N 53°55' E 009°11'2 2.1
2014-Oct-19 16:33N 53°53' E 009°10'1110.5
2014-Oct-19 15:29N 53°46' E 009°24'1111.5
2014-Oct-19 14:33N 53°37' E 009°34'1111.4
2014-Oct-19 13:33N 53°33' E 009°52'3 2.9
2014-Oct-19 12:30N 53°31' E 009°57'0 0.0
2014-Oct-19 11:33N 53°31' E 009°57'0 0.0
2014-Oct-19 10:24N 53°31' E 009°57'0 0.0
2014-Oct-19 09:34N 53°31' E 009°57'0 0.0
2014-Oct-19 08:30N 53°31' E 009°57'0 0.0
2014-Oct-19 07:33N 53°31' E 009°57'0 0.0
2014-Oct-19 06:31N 53°31' E 009°57'0 0.0
2014-Oct-19 05:25N 53°31' E 009°57'1 1.5
2014-Oct-19 04:33N 53°32' E 009°57'0 0.4
2014-Oct-19 03:27N 53°32' E 009°58'0 0.0
2014-Oct-19 02:30N 53°32' E 009°58'0 0.0
2014-Oct-19 01:33N 53°32' E 009°58'0 0.0
2014-Oct-19 00:32N 53°32' E 009°58'0 0.0
2014-Oct-18 23:32N 53°32' E 009°58'0 0.0
2014-Oct-18 22:24N 53°32' E 009°58'0 0.0
2014-Oct-18 21:33N 53°32' E 009°58'0 0.0
2014-Oct-18 20:31N 53°32' E 009°58'0 0.0
2014-Oct-18 19:27N 53°32' E 009°58'0 0.0
2014-Oct-18 18:33N 53°32' E 009°58'0 0.0
2014-Oct-18 17:31N 53°32' E 009°58'0 0.0
2014-Oct-18 16:29N 53°32' E 009°58'0 0.0
2014-Oct-18 15:26N 53°32' E 009°58'0 0.0
2014-Oct-18 14:33N 53°32' E 009°58'0 0.0
2014-Oct-18 13:31N 53°32' E 009°58'0 0.0
2014-Oct-18 12:32N 53°32' E 009°58'0 0.0
2014-Oct-18 11:31N 53°32' E 009°58'0 0.0
2014-Oct-18 10:31N 53°32' E 009°58'0 0.0
2014-Oct-18 09:33N 53°32' E 009°58'0 0.0
2014-Oct-18 08:33N 53°32' E 009°58'0 0.0
2014-Oct-18 07:28N 53°32' E 009°58'0 0.0
2014-Oct-18 06:32N 53°32' E 009°58'0 0.0
2014-Oct-18 05:30N 53°32' E 009°58'0 0.0
2014-Oct-18 04:32N 53°32' E 009°58'0 0.0
2014-Oct-18 03:30N 53°32' E 009°58'0 0.0
2014-Oct-18 02:32N 53°32' E 009°58'0 0.0
2014-Oct-18 01:21N 53°32' E 009°58'0 0.0
2014-Oct-18 00:27N 53°32' E 009°58'0 0.0
2014-Oct-17 23:28N 53°32' E 009°58'0 0.0
2014-Oct-17 22:31N 53°32' E 009°58'0 0.0
2014-Oct-17 21:32N 53°32' E 009°58'0 0.0
2014-Oct-17 20:31N 53°32' E 009°58'0 0.0
2014-Oct-17 19:28N 53°32' E 009°58'0 0.0
2014-Oct-17 18:30N 53°32' E 009°58'0 0.0
2014-Oct-17 17:29N 53°32' E 009°58'0 0.0
2014-Oct-17 16:31N 53°32' E 009°58'0 0.0
2014-Oct-17 15:31N 53°32' E 009°58'0 0.0
2014-Oct-17 14:26N 53°32' E 009°58'0 0.0
2014-Oct-17 13:27N 53°32' E 009°58'0 0.0
2014-Oct-17 12:30N 53°32' E 009°58'0 0.0
2014-Oct-17 11:32N 53°32' E 009°58'0 0.0
2014-Oct-17 10:32N 53°32' E 009°58'0 0.0
2014-Oct-17 09:28N 53°32' E 009°58'0 0.0
2014-Oct-17 08:31N 53°32' E 009°58'0 0.0
2014-Oct-17 07:32N 53°32' E 009°58'0 0.0
2014-Oct-17 06:32N 53°32' E 009°58'0 0.0
2014-Oct-17 05:32N 53°32' E 009°58'0 0.0
2014-Oct-17 04:27N 53°32' E 009°58'0 0.0
2014-Oct-17 03:33N 53°32' E 009°58'0 0.0
2014-Oct-17 02:32N 53°32' E 009°58'0 0.0
2014-Oct-17 01:28N 53°32' E 009°58'0 0.0
2014-Oct-17 00:33N 53°32' E 009°58'0 0.0
2014-Oct-16 23:28N 53°32' E 009°58'0 0.0
2014-Oct-16 22:33N 53°32' E 009°58'0 0.0
2014-Oct-16 21:32N 53°32' E 009°58'0 0.0
2014-Oct-16 20:32N 53°32' E 009°58'0 0.0
2014-Oct-16 19:31N 53°32' E 009°58'0 0.0
2014-Oct-16 18:32N 53°32' E 009°58'0 0.0
2014-Oct-16 17:25N 53°32' E 009°58'1 0.6
2014-Oct-16 16:34N 53°32' E 009°57'4 3.7
2014-Oct-16 15:28N 53°28' E 009°59'0 0.0
2014-Oct-16 14:28N 53°28' E 009°58'0 0.0
2014-Oct-16 13:28N 53°28' E 009°58'0 0.0
2014-Oct-16 12:27N 53°28' E 009°58'0 0.0
2014-Oct-16 11:28N 53°28' E 009°58'0 0.0
2014-Oct-16 10:33N 53°28' E 009°58'0 0.0
2014-Oct-16 09:28N 53°28' E 009°58'0 0.0
2014-Oct-16 08:30N 53°28' E 009°58'0 0.0
2014-Oct-16 07:32N 53°28' E 009°58'0 0.0
2014-Oct-16 06:33N 53°28' E 009°58'0 0.0
2014-Oct-16 05:27N 53°28' E 009°58'0 0.0
2014-Oct-16 04:33N 53°28' E 009°58'0 0.0
2014-Oct-16 03:26N 53°28' E 009°58'0 0.0
2014-Oct-16 02:23N 53°28' E 009°58'0 0.0
2014-Oct-16 01:29N 53°28' E 009°58'0 0.0
2014-Oct-16 00:32N 53°28' E 009°58'0 0.0
2014-Oct-15 23:28N 53°28' E 009°58'0 0.0
2014-Oct-15 22:32N 53°28' E 009°58'0 0.0
2014-Oct-15 21:27N 53°28' E 009°58'0 0.0
2014-Oct-15 20:33N 53°28' E 009°58'4 4.4
2014-Oct-15 19:34N 53°32' E 009°56'7 6.7
2014-Oct-15 18:33N 53°34' E 009°44'6 5.8
2014-Oct-15 17:33N 53°36' E 009°36'6 6.2
2014-Oct-15 16:31N 53°41' E 009°30'9 8.7
2014-Oct-15 15:30N 53°49' E 009°22'1111.5
2014-Oct-15 14:33N 53°52' E 009°04'1111.4
2014-Oct-15 13:33N 53°51' E 008°45'1111.2
2014-Oct-15 12:33N 53°58' E 008°30'1211.5
2014-Oct-15 11:33N 53°59' E 008°11'1010.4
2014-Oct-15 10:33N 54°03' E 007°54'1010.1
2014-Oct-15 09:33N 54°08' E 007°39'9 8.7
2014-Oct-15 08:33N 54°16' E 007°31'9 9.5
2014-Oct-15 07:33N 54°25' E 007°30'9 9.2
2014-Oct-15 06:33N 54°34' E 007°28'13 9.1
2014-Oct-15 05:08N 54°47' E 007°26'5 8.4
2014-Oct-15 04:33N 54°52' E 007°25'9 9.0
2014-Oct-15 03:33N 55°01' E 007°24'9 9.2
2014-Oct-15 02:33N 55°10' E 007°23'9 9.1
2014-Oct-15 01:33N 55°19' E 007°18'10 9.6
2014-Oct-15 00:33N 55°26' E 007°08'175 8.7
2014-Oct-14 04:26N 58°14' E 005°39'9 9.6
2014-Oct-14 03:33N 58°22' E 005°33'10 9.6
2014-Oct-14 02:33N 58°31' E 005°28'13 9.7
2014-Oct-14 01:14N 58°43' E 005°20'7 9.7
2014-Oct-14 00:33N 58°50' E 005°19'10 9.7
2014-Oct-13 23:33N 58°60' E 005°18'9 9.1
2014-Oct-13 22:33N 59°08' E 005°26'1010.4
2014-Oct-13 21:33N 59°15' E 005°41'1010.4
2014-Oct-13 20:34N 59°21' E 005°58'  
Track history (hours):
 
Tides and Currents Weather Stations Pressure Air Temp Water Temp Dewpoint Dewpoint Depression Visibility Wind Speed Wind Dir Waves Ship Positions

Pride

Last reported at 2014-Oct-23 04:33 UTC. Time now 2014-Oct-23 05:26 UTC.
Position N 57°48' E 010°49'.

Length 88 m; draft 3.4 m.

Type: Ship. MMSI: 236166000.

Date/timePositionNaut miles runAvg speedWind from/ knotsBaromVisibWave heightAir tempDewpointWater temp
2014-Oct-23 04:33N 57°48' E 010°49'10 9.5
2014-Oct-23 03:33N 57°39' E 010°45'152 8.7
2014-Oct-22 10:06N 55°11' E 009°46'5 8.5
2014-Oct-22 09:33N 55°07' E 009°43'4 3.1
2014-Oct-22 08:22N 55°06' E 009°37'0 0.0
2014-Oct-22 07:26N 55°06' E 009°37'0 0.0
2014-Oct-22 00:21N 55°06' E 009°37'0 0.0
2014-Oct-21 23:26N 55°06' E 009°37'7 0.2
2014-Oct-20 08:26N 55°03' E 009°26'6 6.6
2014-Oct-20 07:33N 55°04' E 009°36'9 9.2
2014-Oct-20 06:34N 55°06' E 009°51'26 8.7
2014-Oct-20 03:32N 54°44' E 010°14'9 9.6
2014-Oct-20 02:33N 54°34' E 010°18'9 9.1
2014-Oct-20 01:33N 54°26' E 010°14'5 4.8
2014-Oct-20 00:33N 54°22' E 010°08'4 4.2
2014-Oct-19 23:33N 54°22' E 010°01'5 5.4
2014-Oct-19 22:32N 54°22' E 009°52'36 7.2
2014-Oct-19 17:33N 53°55' E 009°11'2 2.1
2014-Oct-19 16:33N 53°53' E 009°10'1110.5
2014-Oct-19 15:29N 53°46' E 009°24'1111.5
2014-Oct-19 14:33N 53°37' E 009°34'1111.4
2014-Oct-19 13:33N 53°33' E 009°52'3 2.9
2014-Oct-19 12:30N 53°31' E 009°57'0 0.0
2014-Oct-19 11:33N 53°31' E 009°57'0 0.0
2014-Oct-19 10:24N 53°31' E 009°57'0 0.0
2014-Oct-19 09:34N 53°31' E 009°57'0 0.0
2014-Oct-19 08:30N 53°31' E 009°57'0 0.0
2014-Oct-19 07:33N 53°31' E 009°57'0 0.0
2014-Oct-19 06:31N 53°31' E 009°57'0 0.0
2014-Oct-19 05:25N 53°31' E 009°57'1 1.5
2014-Oct-19 04:33N 53°32' E 009°57'0 0.4
2014-Oct-19 03:27N 53°32' E 009°58'0 0.0
2014-Oct-19 02:30N 53°32' E 009°58'0 0.0
2014-Oct-19 01:33N 53°32' E 009°58'0 0.0
2014-Oct-19 00:32N 53°32' E 009°58'0 0.0
2014-Oct-18 23:32N 53°32' E 009°58'0 0.0
2014-Oct-18 22:24N 53°32' E 009°58'0 0.0
2014-Oct-18 21:33N 53°32' E 009°58'0 0.0
2014-Oct-18 20:31N 53°32' E 009°58'0 0.0
2014-Oct-18 19:27N 53°32' E 009°58'0 0.0
2014-Oct-18 18:33N 53°32' E 009°58'0 0.0
2014-Oct-18 17:31N 53°32' E 009°58'0 0.0
2014-Oct-18 16:29N 53°32' E 009°58'0 0.0
2014-Oct-18 15:26N 53°32' E 009°58'0 0.0
2014-Oct-18 14:33N 53°32' E 009°58'0 0.0
2014-Oct-18 13:31N 53°32' E 009°58'0 0.0
2014-Oct-18 12:32N 53°32' E 009°58'0 0.0
2014-Oct-18 11:31N 53°32' E 009°58'0 0.0
2014-Oct-18 10:31N 53°32' E 009°58'0 0.0
2014-Oct-18 09:33N 53°32' E 009°58'0 0.0
2014-Oct-18 08:33N 53°32' E 009°58'0 0.0
2014-Oct-18 07:28N 53°32' E 009°58'0 0.0
2014-Oct-18 06:32N 53°32' E 009°58'0 0.0
2014-Oct-18 05:30N 53°32' E 009°58'0 0.0
2014-Oct-18 04:32N 53°32' E 009°58'0 0.0
2014-Oct-18 03:30N 53°32' E 009°58'0 0.0
2014-Oct-18 02:32N 53°32' E 009°58'0 0.0
2014-Oct-18 01:21N 53°32' E 009°58'0 0.0
2014-Oct-18 00:27N 53°32' E 009°58'0 0.0
2014-Oct-17 23:28N 53°32' E 009°58'0 0.0
2014-Oct-17 22:31N 53°32' E 009°58'0 0.0
2014-Oct-17 21:32N 53°32' E 009°58'0 0.0
2014-Oct-17 20:31N 53°32' E 009°58'0 0.0
2014-Oct-17 19:28N 53°32' E 009°58'0 0.0
2014-Oct-17 18:30N 53°32' E 009°58'0 0.0
2014-Oct-17 17:29N 53°32' E 009°58'0 0.0
2014-Oct-17 16:31N 53°32' E 009°58'0 0.0
2014-Oct-17 15:31N 53°32' E 009°58'0 0.0
2014-Oct-17 14:26N 53°32' E 009°58'0 0.0
2014-Oct-17 13:27N 53°32' E 009°58'0 0.0
2014-Oct-17 12:30N 53°32' E 009°58'0 0.0
2014-Oct-17 11:32N 53°32' E 009°58'0 0.0
2014-Oct-17 10:32N 53°32' E 009°58'0 0.0
2014-Oct-17 09:28N 53°32' E 009°58'0 0.0
2014-Oct-17 08:31N 53°32' E 009°58'0 0.0
2014-Oct-17 07:32N 53°32' E 009°58'0 0.0
2014-Oct-17 06:32N 53°32' E 009°58'0 0.0
2014-Oct-17 05:32N 53°32' E 009°58'0 0.0
2014-Oct-17 04:27N 53°32' E 009°58'0 0.0
2014-Oct-17 03:33N 53°32' E 009°58'0 0.0
2014-Oct-17 02:32N 53°32' E 009°58'0 0.0
2014-Oct-17 01:28N 53°32' E 009°58'0 0.0
2014-Oct-17 00:33N 53°32' E 009°58'0 0.0
2014-Oct-16 23:28N 53°32' E 009°58'0 0.0
2014-Oct-16 22:33N 53°32' E 009°58'0 0.0
2014-Oct-16 21:32N 53°32' E 009°58'0 0.0
2014-Oct-16 20:32N 53°32' E 009°58'0 0.0
2014-Oct-16 19:31N 53°32' E 009°58'0 0.0
2014-Oct-16 18:32N 53°32' E 009°58'0 0.0
2014-Oct-16 17:25N 53°32' E 009°58'1 0.6
2014-Oct-16 16:34N 53°32' E 009°57'4 3.7
2014-Oct-16 15:28N 53°28' E 009°59'0 0.0
2014-Oct-16 14:28N 53°28' E 009°58'0 0.0
2014-Oct-16 13:28N 53°28' E 009°58'0 0.0
2014-Oct-16 12:27N 53°28' E 009°58'0 0.0
2014-Oct-16 11:28N 53°28' E 009°58'0 0.0
2014-Oct-16 10:33N 53°28' E 009°58'0 0.0
2014-Oct-16 09:28N 53°28' E 009°58'0 0.0
2014-Oct-16 08:30N 53°28' E 009°58'0 0.0
2014-Oct-16 07:32N 53°28' E 009°58'0 0.0
2014-Oct-16 06:33N 53°28' E 009°58'0 0.0
2014-Oct-16 05:27N 53°28' E 009°58'0 0.0
2014-Oct-16 04:33N 53°28' E 009°58'0 0.0
2014-Oct-16 03:26N 53°28' E 009°58'0 0.0
2014-Oct-16 02:23N 53°28' E 009°58'0 0.0
2014-Oct-16 01:29N 53°28' E 009°58'0 0.0
2014-Oct-16 00:32N 53°28' E 009°58'0 0.0
2014-Oct-15 23:28N 53°28' E 009°58'0 0.0
2014-Oct-15 22:32N 53°28' E 009°58'0 0.0
2014-Oct-15 21:27N 53°28' E 009°58'0 0.0
2014-Oct-15 20:33N 53°28' E 009°58'4 4.4
2014-Oct-15 19:34N 53°32' E 009°56'7 6.7
2014-Oct-15 18:33N 53°34' E 009°44'6 5.8
2014-Oct-15 17:33N 53°36' E 009°36'6 6.2
2014-Oct-15 16:31N 53°41' E 009°30'9 8.7
2014-Oct-15 15:30N 53°49' E 009°22'1111.5
2014-Oct-15 14:33N 53°52' E 009°04'1111.4
2014-Oct-15 13:33N 53°51' E 008°45'1111.2
2014-Oct-15 12:33N 53°58' E 008°30'1211.5
2014-Oct-15 11:33N 53°59' E 008°11'1010.4
2014-Oct-15 10:33N 54°03' E 007°54'1010.1
2014-Oct-15 09:33N 54°08' E 007°39'9 8.7
2014-Oct-15 08:33N 54°16' E 007°31'9 9.5
2014-Oct-15 07:33N 54°25' E 007°30'9 9.2
2014-Oct-15 06:33N 54°34' E 007°28'13 9.1
2014-Oct-15 05:08N 54°47' E 007°26'5 8.4
2014-Oct-15 04:33N 54°52' E 007°25'9 9.0
2014-Oct-15 03:33N 55°01' E 007°24'9 9.2
2014-Oct-15 02:33N 55°10' E 007°23'9 9.1
2014-Oct-15 01:33N 55°19' E 007°18'10 9.6
2014-Oct-15 00:33N 55°26' E 007°08'175 8.7
2014-Oct-14 04:26N 58°14' E 005°39'9 9.6
2014-Oct-14 03:33N 58°22' E 005°33'10 9.6
2014-Oct-14 02:33N 58°31' E 005°28'13 9.7
2014-Oct-14 01:14N 58°43' E 005°20'7 9.7
2014-Oct-14 00:33N 58°50' E 005°19'10 9.7
2014-Oct-13 23:33N 58°60' E 005°18'9 9.1
2014-Oct-13 22:33N 59°08' E 005°26'1010.4
2014-Oct-13 21:33N 59°15' E 005°41'1010.4
2014-Oct-13 20:34N 59°21' E 005°58'  

Dump ship's entire track history